createdAt,value
2019-02-16T00:00:16.803Z,0.04
2019-02-16T00:01:16.836Z,0.02
2019-02-16T00:02:16.873Z,-0.04
2019-02-16T00:03:16.908Z,0.00
2019-02-16T00:04:16.944Z,-0.18
2019-02-16T00:05:16.976Z,-0.05
2019-02-16T00:06:17.019Z,-0.10
2019-02-16T00:07:17.051Z,0.02
2019-02-16T00:08:17.079Z,-0.04
2019-02-16T00:09:17.122Z,-0.03
2019-02-16T00:10:17.154Z,-0.10
2019-02-16T00:11:17.183Z,0.03
2019-02-16T00:12:17.218Z,-0.07
2019-02-16T00:13:17.256Z,-0.08
2019-02-16T00:14:17.287Z,-0.14
2019-02-16T00:15:17.322Z,-0.14
2019-02-16T00:16:17.356Z,-0.21
2019-02-16T00:17:17.391Z,-0.21
2019-02-16T00:18:17.430Z,-0.22
2019-02-16T00:19:17.460Z,-0.21
2019-02-16T00:20:17.495Z,-0.16
2019-02-16T00:21:17.538Z,-0.28
2019-02-16T00:22:17.565Z,-0.22
2019-02-16T00:23:17.600Z,-0.25
2019-02-16T00:24:17.633Z,-0.31
2019-02-16T00:25:17.671Z,-0.22
2019-02-16T00:26:17.705Z,-0.23
2019-02-16T00:27:17.737Z,-0.31
2019-02-16T00:28:17.772Z,-0.36
2019-02-16T00:29:17.807Z,-0.22
2019-02-16T00:30:17.842Z,-0.22
2019-02-16T00:31:17.878Z,-0.21
2019-02-16T00:32:17.913Z,-0.26
2019-02-16T00:33:17.956Z,-0.33
2019-02-16T00:34:17.980Z,-0.33
2019-02-16T00:35:18.025Z,-0.28
2019-02-16T00:36:18.050Z,-0.29
2019-02-16T00:37:18.095Z,-0.18
2019-02-16T00:38:18.123Z,-0.33
2019-02-16T00:39:18.153Z,-0.28
2019-02-16T00:40:18.191Z,-0.19
2019-02-16T00:41:18.225Z,-0.31
2019-02-16T00:42:18.263Z,-0.28
2019-02-16T00:43:18.296Z,-0.29
2019-02-16T00:44:18.328Z,-0.25
2019-02-16T00:45:18.363Z,-0.25
2019-02-16T00:46:18.399Z,-0.25
2019-02-16T00:47:18.430Z,-0.29
2019-02-16T00:48:18.469Z,-0.37
2019-02-16T00:49:18.509Z,-0.28
2019-02-16T00:50:18.538Z,-0.33
2019-02-16T00:51:18.580Z,-0.34
2019-02-16T00:52:18.608Z,-0.28
2019-02-16T00:53:18.639Z,-0.31
2019-02-16T00:54:18.676Z,-0.31
2019-02-16T00:55:18.707Z,-0.34
2019-02-16T00:56:18.743Z,-0.40
2019-02-16T00:57:18.779Z,-0.40
2019-02-16T00:58:18.814Z,-0.33
2019-02-16T00:59:18.849Z,-0.54
2019-02-16T01:00:18.881Z,-0.39
2019-02-16T01:01:18.924Z,-0.36
2019-02-16T01:02:18.968Z,-0.40
2019-02-16T01:03:18.984Z,-0.39
2019-02-16T01:04:19.022Z,-0.44
2019-02-16T01:05:19.061Z,-0.54
2019-02-16T01:06:19.093Z,-0.57
2019-02-16T01:07:19.123Z,-0.51
2019-02-16T01:08:19.160Z,-0.51
2019-02-16T01:09:19.204Z,-0.47
2019-02-16T01:10:19.231Z,-0.43
2019-02-16T01:11:19.264Z,-0.46
2019-02-16T01:12:19.306Z,-0.46
2019-02-16T01:13:19.333Z,-0.52
2019-02-16T01:14:19.368Z,-0.46
2019-02-16T01:15:19.401Z,-0.55
2019-02-16T01:16:19.436Z,-0.54
2019-02-16T01:17:19.474Z,-0.52
2019-02-16T01:18:19.506Z,-0.57
2019-02-16T01:19:19.539Z,-0.62
2019-02-16T01:20:19.582Z,-0.62
2019-02-16T01:21:22.764Z,-0.60
2019-02-16T01:22:19.644Z,-0.57
2019-02-16T01:23:19.677Z,-0.65
2019-02-16T01:24:19.719Z,-0.57
2019-02-16T01:25:19.762Z,-0.65
2019-02-16T01:26:19.781Z,-0.72
2019-02-16T01:27:19.822Z,-0.65
2019-02-16T01:28:19.854Z,-0.67
2019-02-16T01:29:19.897Z,-0.67
2019-02-16T01:30:19.925Z,-0.72
2019-02-16T01:31:19.954Z,-0.70
2019-02-16T01:32:19.989Z,-0.67
2019-02-16T01:33:20.024Z,-0.75
2019-02-16T01:34:20.059Z,-0.72
2019-02-16T01:35:20.091Z,-0.75
2019-02-16T01:36:20.133Z,-0.76
2019-02-16T01:37:20.164Z,-0.65
2019-02-16T01:38:20.199Z,-0.67
2019-02-16T01:39:20.231Z,-0.62
2019-02-16T01:40:20.268Z,-0.65
2019-02-16T01:41:20.305Z,-0.70
2019-02-16T01:42:20.337Z,-0.67
2019-02-16T01:43:20.372Z,-0.69
2019-02-16T01:44:20.405Z,-0.67
2019-02-16T01:45:20.438Z,-0.61
2019-02-16T01:46:20.472Z,-0.69
2019-02-16T01:47:20.506Z,-0.76
2019-02-16T01:48:20.540Z,-0.64
2019-02-16T01:49:20.575Z,-0.67
2019-02-16T01:50:20.612Z,-0.73
2019-02-16T01:51:20.657Z,-0.73
2019-02-16T01:52:20.679Z,-0.64
2019-02-16T01:53:20.718Z,-0.70
2019-02-16T01:54:20.748Z,-0.72
2019-02-16T01:55:20.789Z,-0.73
2019-02-16T01:56:20.816Z,-0.67
2019-02-16T01:57:20.849Z,-0.76
2019-02-16T01:58:20.885Z,-0.67
2019-02-16T01:59:20.926Z,-0.65
2019-02-16T02:00:20.955Z,-0.70
2019-02-16T02:01:20.988Z,-0.78
2019-02-16T02:02:21.026Z,-0.75
2019-02-16T02:03:21.060Z,-0.78
2019-02-16T02:04:21.090Z,-0.72
2019-02-16T02:05:21.126Z,-0.72
2019-02-16T02:06:21.160Z,-0.75
2019-02-16T02:07:21.192Z,-0.78
2019-02-16T02:08:21.229Z,-0.75
2019-02-16T02:09:21.263Z,-0.75
2019-02-16T02:10:21.302Z,-0.79
2019-02-16T02:11:21.333Z,-0.75
2019-02-16T02:12:21.368Z,-0.75
2019-02-16T02:13:21.399Z,-0.79
2019-02-16T02:14:21.442Z,-0.86
2019-02-16T02:15:21.475Z,-0.73
2019-02-16T02:16:21.506Z,-0.69
2019-02-16T02:17:21.543Z,-0.69
2019-02-16T02:18:21.574Z,-0.65
2019-02-16T02:19:21.614Z,-0.62
2019-02-16T02:20:21.660Z,-0.70
2019-02-16T02:21:21.676Z,-0.64
2019-02-16T02:22:21.720Z,-0.72
2019-02-16T02:23:21.744Z,-0.76
2019-02-16T02:24:21.779Z,-0.79
2019-02-16T02:25:21.815Z,-0.73
2019-02-16T02:26:21.847Z,-0.76
2019-02-16T02:27:21.881Z,-0.73
2019-02-16T02:28:21.916Z,-0.76
2019-02-16T02:29:21.959Z,-0.69
2019-02-16T02:30:21.991Z,-0.69
2019-02-16T02:31:22.034Z,-0.78
2019-02-16T02:32:22.054Z,-0.73
2019-02-16T02:33:22.090Z,-0.80
2019-02-16T02:34:22.123Z,-0.80
2019-02-16T02:35:22.158Z,-0.85
2019-02-16T02:36:22.196Z,-0.83
2019-02-16T02:37:22.227Z,-0.78
2019-02-16T02:38:22.267Z,-0.85
2019-02-16T02:39:22.305Z,-0.97
2019-02-16T02:40:22.343Z,-0.79
2019-02-16T02:41:22.373Z,-0.95
2019-02-16T02:42:22.408Z,-0.80
2019-02-16T02:43:22.432Z,-0.86
2019-02-16T02:44:22.469Z,-0.79
2019-02-16T02:45:22.501Z,-0.76
2019-02-16T02:46:22.538Z,-0.72
2019-02-16T02:47:22.577Z,-0.75
2019-02-16T02:48:22.605Z,-0.79
2019-02-16T02:49:22.644Z,-0.86
2019-02-16T02:50:22.678Z,-0.83
2019-02-16T02:51:22.712Z,-0.91
2019-02-16T02:52:22.754Z,-0.91
2019-02-16T02:53:30.688Z,-0.95
2019-02-16T02:54:22.822Z,-0.92
2019-02-16T02:55:22.844Z,-0.95
2019-02-16T02:56:22.886Z,-0.91
2019-02-16T02:57:22.915Z,-0.92
2019-02-16T02:58:22.954Z,-0.98
2019-02-16T02:59:22.981Z,-0.95
2019-02-16T03:00:23.016Z,-0.95
2019-02-16T03:01:23.055Z,-0.97
2019-02-16T03:02:23.088Z,-0.98
2019-02-16T03:03:23.119Z,-0.99
2019-02-16T03:04:23.152Z,-0.95
2019-02-16T03:05:23.195Z,-0.95
2019-02-16T03:06:23.222Z,-0.98
2019-02-16T03:07:23.257Z,-0.95
2019-02-16T03:08:23.289Z,-1.02
2019-02-16T03:09:23.324Z,-1.02
2019-02-16T03:10:23.358Z,-0.97
2019-02-16T03:11:23.399Z,-1.04
2019-02-16T03:12:23.426Z,-0.95
2019-02-16T03:13:23.462Z,-1.01
2019-02-16T03:14:23.497Z,-0.98
2019-02-16T03:15:23.530Z,-1.04
2019-02-16T03:16:23.566Z,-0.98
2019-02-16T03:17:23.598Z,-1.02
2019-02-16T03:18:23.642Z,-1.07
2019-02-16T03:19:23.667Z,-1.10
2019-02-16T03:20:23.702Z,-0.99
2019-02-16T03:21:23.738Z,-0.97
2019-02-16T03:22:23.871Z,-1.02
2019-02-16T03:23:23.808Z,-1.07
2019-02-16T03:24:23.839Z,-0.94
2019-02-16T03:25:23.875Z,-1.01
2019-02-16T03:26:23.909Z,-0.97
2019-02-16T03:27:23.942Z,-1.07
2019-02-16T03:28:23.976Z,-0.91
2019-02-16T03:29:24.010Z,-0.89
2019-02-16T03:30:24.048Z,-0.92
2019-02-16T03:31:24.079Z,-1.01
2019-02-16T03:32:24.131Z,-1.05
2019-02-16T03:33:24.149Z,-0.97
2019-02-16T03:34:24.194Z,-0.91
2019-02-16T03:35:24.220Z,-0.91
2019-02-16T03:36:24.249Z,-0.95
2019-02-16T03:37:24.285Z,-0.94
2019-02-16T03:38:24.327Z,-0.94
2019-02-16T03:39:24.357Z,-0.89
2019-02-16T03:40:24.388Z,-0.91
2019-02-16T03:41:24.422Z,-1.07
2019-02-16T03:42:24.456Z,-0.98
2019-02-16T03:43:24.489Z,-0.98
2019-02-16T03:44:24.527Z,-0.97
2019-02-16T03:45:24.559Z,-0.99
2019-02-16T03:46:24.595Z,-1.02
2019-02-16T03:47:24.650Z,-0.95
2019-02-16T03:48:24.660Z,-1.07
2019-02-16T03:49:24.696Z,-1.10
2019-02-16T03:50:24.728Z,-1.12
2019-02-16T03:51:24.762Z,-1.16
2019-02-16T03:52:24.799Z,-1.10
2019-02-16T03:53:24.840Z,-1.19
2019-02-16T03:54:24.867Z,-1.05
2019-02-16T03:55:24.900Z,-1.15
2019-02-16T03:56:24.934Z,-1.10
2019-02-16T03:57:24.969Z,-1.23
2019-02-16T03:58:25.004Z,-1.09
2019-02-16T03:59:25.040Z,-1.25
2019-02-16T04:00:25.073Z,-1.17
2019-02-16T04:01:25.105Z,-1.13
2019-02-16T04:02:25.140Z,-1.16
2019-02-16T04:03:25.181Z,-1.20
2019-02-16T04:04:25.210Z,-1.22
2019-02-16T04:05:25.242Z,-1.28
2019-02-16T04:06:25.278Z,-1.28
2019-02-16T04:07:25.310Z,-1.23
2019-02-16T04:08:25.349Z,-1.37
2019-02-16T04:09:25.387Z,-1.28
2019-02-16T04:10:25.418Z,-1.31
2019-02-16T04:11:25.447Z,-1.27
2019-02-16T04:12:25.480Z,-1.28
2019-02-16T04:13:25.520Z,-1.27
2019-02-16T04:14:25.550Z,-1.35
2019-02-16T04:15:25.589Z,-1.34
2019-02-16T04:16:25.618Z,-1.28
2019-02-16T04:17:25.651Z,-1.31
2019-02-16T04:18:25.693Z,-1.33
2019-02-16T04:19:25.719Z,-1.35
2019-02-16T04:20:25.754Z,-1.43
2019-02-16T04:21:25.797Z,-1.49
2019-02-16T04:22:25.822Z,-1.40
2019-02-16T04:23:25.855Z,-1.49
2019-02-16T04:24:25.890Z,-1.46
2019-02-16T04:25:25.923Z,-1.41
2019-02-16T04:26:25.976Z,-1.51
2019-02-16T04:27:26.000Z,-1.46
2019-02-16T04:28:26.026Z,-1.43
2019-02-16T04:29:26.062Z,-1.45
2019-02-16T04:30:26.143Z,-1.34
2019-02-16T04:31:26.127Z,-1.43
2019-02-16T04:32:26.172Z,-1.41
2019-02-16T04:33:26.196Z,-1.45
2019-02-16T04:34:26.241Z,-1.38
2019-02-16T04:35:26.275Z,-1.34
2019-02-16T04:36:26.298Z,-1.38
2019-02-16T04:37:26.332Z,-1.34
2019-02-16T04:38:26.376Z,-1.41
2019-02-16T04:39:26.400Z,-1.43
2019-02-16T04:40:26.449Z,-1.37
2019-02-16T04:41:26.477Z,-1.43
2019-02-16T04:42:26.503Z,-1.43
2019-02-16T04:43:26.536Z,-1.41
2019-02-16T04:44:26.573Z,-1.34
2019-02-16T04:45:26.604Z,-1.38
2019-02-16T04:46:26.639Z,-1.43
2019-02-16T04:47:26.672Z,-1.45
2019-02-16T04:48:26.707Z,-1.49
2019-02-16T04:49:26.741Z,-1.46
2019-02-16T04:50:26.777Z,-1.45
2019-02-16T04:51:26.810Z,-1.43
2019-02-16T04:52:34.264Z,-1.43
2019-02-16T04:53:26.877Z,-1.56
2019-02-16T04:54:26.913Z,-1.49
2019-02-16T04:55:26.946Z,-1.51
2019-02-16T04:56:26.982Z,-1.58
2019-02-16T04:57:27.014Z,-1.58
2019-02-16T04:58:27.051Z,-1.52
2019-02-16T04:59:27.082Z,-1.49
2019-02-16T05:00:27.118Z,-1.52
2019-02-16T05:01:27.150Z,-1.54
2019-02-16T05:02:27.187Z,-1.51
2019-02-16T05:03:27.218Z,-1.51
2019-02-16T05:04:27.262Z,-1.51
2019-02-16T05:05:27.287Z,-1.54
2019-02-16T05:06:27.321Z,-1.54
2019-02-16T05:07:27.363Z,-1.54
2019-02-16T05:08:27.392Z,-1.66
2019-02-16T05:09:27.475Z,-1.58
2019-02-16T05:10:27.461Z,-1.70
2019-02-16T05:11:27.491Z,-1.73
2019-02-16T05:12:27.526Z,-1.67
2019-02-16T05:13:27.566Z,-1.62
2019-02-16T05:14:27.593Z,-1.70
2019-02-16T05:15:27.629Z,-1.66
2019-02-16T05:16:27.666Z,-1.62
2019-02-16T05:17:27.696Z,-1.69
2019-02-16T05:18:27.740Z,-1.70
2019-02-16T05:19:27.772Z,-1.74
2019-02-16T05:20:27.798Z,-1.72
2019-02-16T05:21:27.831Z,-1.72
2019-02-16T05:22:27.867Z,-1.85
2019-02-16T05:23:27.908Z,-1.80
2019-02-16T05:24:27.934Z,-1.84
2019-02-16T05:25:27.967Z,-1.87
2019-02-16T05:26:28.004Z,-1.77
2019-02-16T05:27:28.035Z,-1.72
2019-02-16T05:28:28.072Z,-1.77
2019-02-16T05:29:28.122Z,-1.77
2019-02-16T05:30:28.141Z,-1.69
2019-02-16T05:31:28.171Z,-1.69
2019-02-16T05:32:28.208Z,-1.58
2019-02-16T05:33:28.241Z,-1.58
2019-02-16T05:34:28.275Z,-1.69
2019-02-16T05:35:28.307Z,-1.66
2019-02-16T05:36:28.343Z,-1.74
2019-02-16T05:37:30.406Z,-1.62
2019-02-16T05:38:28.417Z,-1.70
2019-02-16T05:39:28.445Z,-1.73
2019-02-16T05:40:28.478Z,-1.70
2019-02-16T05:41:28.511Z,-1.72
2019-02-16T05:42:28.546Z,-1.79
2019-02-16T05:43:28.582Z,-1.73
2019-02-16T05:44:28.622Z,-1.73
2019-02-16T05:45:28.648Z,-1.76
2019-02-16T05:46:28.682Z,-1.72
2019-02-16T05:47:28.721Z,-1.66
2019-02-16T05:48:28.750Z,-1.74
2019-02-16T05:49:28.790Z,-1.73
2019-02-16T05:50:28.819Z,-1.70
2019-02-16T05:51:28.854Z,-1.72
2019-02-16T05:52:28.888Z,-1.72
2019-02-16T05:53:28.920Z,-1.58
2019-02-16T05:54:28.953Z,-1.66
2019-02-16T05:55:28.987Z,-1.61
2019-02-16T05:56:29.019Z,-1.70
2019-02-16T05:57:29.066Z,-1.73
2019-02-16T05:58:29.088Z,-1.70
2019-02-16T05:59:29.121Z,-1.69
2019-02-16T06:00:29.163Z,-1.74
2019-02-16T06:01:29.197Z,-1.73
2019-02-16T06:02:29.224Z,-1.67
2019-02-16T06:03:29.256Z,-1.66
2019-02-16T06:04:29.292Z,-1.74
2019-02-16T06:05:29.326Z,-1.74
2019-02-16T06:06:29.366Z,-1.72
2019-02-16T06:07:29.394Z,-1.66
2019-02-16T06:08:29.428Z,-1.62
2019-02-16T06:09:29.461Z,-1.64
2019-02-16T06:10:29.497Z,-1.69
2019-02-16T06:11:29.531Z,-1.67
2019-02-16T06:12:29.563Z,-1.69
2019-02-16T06:13:29.600Z,-1.72
2019-02-16T06:14:29.648Z,-1.61
2019-02-16T06:15:29.665Z,-1.72
2019-02-16T06:16:29.704Z,-1.59
2019-02-16T06:17:29.732Z,-1.66
2019-02-16T06:18:29.768Z,-1.62
2019-02-16T06:19:29.801Z,-1.58
2019-02-16T06:20:29.850Z,-1.61
2019-02-16T06:21:29.870Z,-1.54
2019-02-16T06:22:29.903Z,-1.52
2019-02-16T06:23:29.938Z,-1.56
2019-02-16T06:24:29.972Z,-1.51
2019-02-16T06:25:30.006Z,-1.49
2019-02-16T06:26:30.039Z,-1.56
2019-02-16T06:27:30.071Z,-1.56
2019-02-16T06:28:30.106Z,-1.54
2019-02-16T06:29:30.141Z,-1.61
2019-02-16T06:30:30.177Z,-1.55
2019-02-16T06:31:30.205Z,-1.56
2019-02-16T06:32:30.240Z,-1.54
2019-02-16T06:33:30.274Z,-1.56
2019-02-16T06:34:32.265Z,-1.61
2019-02-16T06:35:30.349Z,-1.62
2019-02-16T06:36:30.375Z,-1.66
2019-02-16T06:37:30.410Z,-1.62
2019-02-16T06:38:30.444Z,-1.72
2019-02-16T06:39:30.484Z,-1.73
2019-02-16T06:40:30.530Z,-1.77
2019-02-16T06:41:30.553Z,-1.73
2019-02-16T06:42:30.678Z,-1.72
2019-02-16T06:43:30.628Z,-1.69
2019-02-16T06:44:30.645Z,-1.66
2019-02-16T06:45:30.685Z,-1.62
2019-02-16T06:46:30.714Z,-1.64
2019-02-16T06:47:30.747Z,-1.58
2019-02-16T06:48:30.783Z,-1.67
2019-02-16T06:49:30.821Z,-1.61
2019-02-16T06:50:36.718Z,-1.67
2019-02-16T06:51:30.885Z,-1.61
2019-02-16T06:52:30.918Z,-1.67
2019-02-16T06:53:30.950Z,-1.61
2019-02-16T06:54:30.991Z,-1.56
2019-02-16T06:55:31.022Z,-1.58
2019-02-16T06:56:31.052Z,-1.66
2019-02-16T06:57:31.097Z,-1.61
2019-02-16T06:58:31.123Z,-1.54
2019-02-16T06:59:31.162Z,-1.55
2019-02-16T07:00:31.190Z,-1.49
2019-02-16T07:01:33.117Z,-1.48
2019-02-16T07:02:31.262Z,-1.51
2019-02-16T07:03:31.297Z,-1.43
2019-02-16T07:04:31.335Z,-1.43
2019-02-16T07:05:31.360Z,-1.51
2019-02-16T07:06:31.400Z,-1.40
2019-02-16T07:07:31.444Z,-1.40
2019-02-16T07:08:31.466Z,-1.34
2019-02-16T07:09:31.495Z,-1.40
2019-02-16T07:10:31.532Z,-1.37
2019-02-16T07:11:31.563Z,-1.28
2019-02-16T07:12:31.596Z,-1.28
2019-02-16T07:13:31.633Z,-1.31
2019-02-16T07:14:31.971Z,-1.35
2019-02-16T07:15:31.698Z,-1.28
2019-02-16T07:16:31.738Z,-1.19
2019-02-16T07:17:31.767Z,-1.30
2019-02-16T07:18:31.854Z,-1.20
2019-02-16T07:19:31.835Z,-1.20
2019-02-16T07:20:31.869Z,-1.22
2019-02-16T07:21:31.905Z,-1.16
2019-02-16T07:22:31.938Z,-1.07
2019-02-16T07:23:31.971Z,-1.12
2019-02-16T07:24:32.012Z,-1.07
2019-02-16T07:25:32.040Z,-1.04
2019-02-16T07:26:32.074Z,-1.01
2019-02-16T07:27:32.107Z,-1.02
2019-02-16T07:28:32.141Z,-1.04
2019-02-16T07:29:32.176Z,-1.05
2019-02-16T07:30:32.211Z,-0.99
2019-02-16T07:31:32.261Z,-0.99
2019-02-16T07:32:32.278Z,-0.95
2019-02-16T07:33:32.314Z,-0.89
2019-02-16T07:34:32.355Z,-0.83
2019-02-16T07:35:32.383Z,-0.95
2019-02-16T07:36:32.414Z,-0.80
2019-02-16T07:37:32.458Z,-0.91
2019-02-16T07:38:32.484Z,-0.80
2019-02-16T07:39:32.518Z,-0.92
2019-02-16T07:40:32.551Z,-0.97
2019-02-16T07:41:32.587Z,-0.98
2019-02-16T07:42:32.620Z,-0.83
2019-02-16T07:43:32.651Z,-0.78
2019-02-16T07:44:32.689Z,-0.79
2019-02-16T07:45:32.720Z,-0.78
2019-02-16T07:46:32.755Z,-0.73
2019-02-16T07:47:32.791Z,-0.78
2019-02-16T07:48:32.826Z,-0.69
2019-02-16T07:49:32.858Z,-0.69
2019-02-16T07:50:32.891Z,-0.73
2019-02-16T07:51:32.928Z,-0.64
2019-02-16T07:52:32.960Z,-0.64
2019-02-16T07:53:32.996Z,-0.51
2019-02-16T07:54:33.029Z,-0.52
2019-02-16T07:55:33.063Z,-0.57
2019-02-16T07:56:33.099Z,-0.57
2019-02-16T07:57:33.130Z,-0.52
2019-02-16T07:58:33.166Z,-0.37
2019-02-16T07:59:33.199Z,-0.37
2019-02-16T08:00:33.234Z,-0.33
2019-02-16T08:01:33.278Z,-0.31
2019-02-16T08:02:33.319Z,-0.25
2019-02-16T08:03:33.337Z,-0.36
2019-02-16T08:04:33.374Z,-0.26
2019-02-16T08:05:33.408Z,-0.18
2019-02-16T08:06:33.441Z,-0.16
2019-02-16T08:07:33.477Z,-0.11
2019-02-16T08:08:33.566Z,-0.11
2019-02-16T08:09:33.555Z,-0.07
2019-02-16T08:10:33.582Z,-0.07
2019-02-16T08:11:33.616Z,-0.04
2019-02-16T08:12:33.649Z,0.03
2019-02-16T08:13:33.686Z,0.08
2019-02-16T08:14:33.721Z,0.13
2019-02-16T08:15:33.753Z,0.07
2019-02-16T08:16:33.787Z,0.18
2019-02-16T08:17:33.823Z,0.24
2019-02-16T08:18:33.858Z,0.29
2019-02-16T08:19:33.891Z,0.33
2019-02-16T08:20:33.925Z,0.35
2019-02-16T08:21:33.969Z,0.41
2019-02-16T08:22:34.000Z,0.32
2019-02-16T08:23:40.231Z,0.46
2019-02-16T08:24:34.074Z,0.47
2019-02-16T08:25:34.108Z,0.49
2019-02-16T08:26:34.134Z,0.57
2019-02-16T08:27:34.180Z,0.57
2019-02-16T08:28:34.208Z,0.61
2019-02-16T08:29:34.293Z,0.78
2019-02-16T08:30:34.272Z,0.79
2019-02-16T08:31:34.312Z,0.86
2019-02-16T08:32:34.349Z,0.86
2019-02-16T08:33:34.377Z,0.84
2019-02-16T08:34:34.415Z,0.84
2019-02-16T08:35:34.447Z,0.83
2019-02-16T08:36:34.484Z,0.90
2019-02-16T08:37:34.518Z,0.86
2019-02-16T08:38:34.556Z,0.94
2019-02-16T08:39:34.588Z,0.88
2019-02-16T08:40:34.623Z,0.97
2019-02-16T08:41:34.668Z,1.05
2019-02-16T08:42:34.694Z,0.97
2019-02-16T08:43:34.740Z,1.02
2019-02-16T08:44:34.776Z,1.02
2019-02-16T08:45:34.815Z,1.05
2019-02-16T08:46:34.900Z,1.09
2019-02-16T08:47:34.870Z,1.15
2019-02-16T08:48:34.905Z,1.16
2019-02-16T08:49:34.940Z,1.30
2019-02-16T08:50:34.990Z,1.37
2019-02-16T08:51:35.010Z,1.41
2019-02-16T08:52:35.053Z,1.50
2019-02-16T08:53:35.081Z,1.51
2019-02-16T08:54:35.114Z,1.51
2019-02-16T08:55:35.155Z,1.65
2019-02-16T08:56:35.184Z,1.69
2019-02-16T08:57:35.220Z,1.77
2019-02-16T08:58:35.256Z,1.87
2019-02-16T08:59:35.291Z,1.84
2019-02-16T09:00:35.325Z,1.87
2019-02-16T09:01:35.362Z,1.99
2019-02-16T09:02:35.397Z,1.93
2019-02-16T09:03:35.433Z,1.93
2019-02-16T09:04:35.468Z,1.90
2019-02-16T09:05:35.504Z,1.90
2019-02-16T09:06:35.555Z,1.99
2019-02-16T09:07:35.575Z,1.99
2019-02-16T09:08:35.620Z,2.05
2019-02-16T09:09:35.654Z,2.03
2019-02-16T09:10:35.689Z,2.05
2019-02-16T09:11:35.722Z,2.09
2019-02-16T09:12:35.752Z,2.14
2019-02-16T09:13:35.787Z,2.16
2019-02-16T09:14:35.832Z,2.25
2019-02-16T09:15:35.861Z,2.23
2019-02-16T09:16:37.951Z,2.36
2019-02-16T09:17:35.930Z,2.53
2019-02-16T09:18:35.968Z,2.52
2019-02-16T09:19:36.001Z,2.61
2019-02-16T09:20:36.036Z,2.82
2019-02-16T09:21:36.072Z,2.90
2019-02-16T09:22:36.108Z,2.99
2019-02-16T09:23:36.145Z,2.90
2019-02-16T09:24:36.180Z,3.03
2019-02-16T09:25:36.215Z,3.03
2019-02-16T09:26:36.250Z,3.06
2019-02-16T09:27:36.297Z,3.03
2019-02-16T09:28:36.332Z,3.02
2019-02-16T09:29:36.359Z,3.14
2019-02-16T09:30:36.395Z,3.03
2019-02-16T09:31:36.431Z,3.13
2019-02-16T09:32:36.470Z,3.11
2019-02-16T09:33:36.605Z,3.18
2019-02-16T09:34:36.539Z,3.15
2019-02-16T09:35:36.574Z,3.10
2019-02-16T09:36:36.610Z,3.24
2019-02-16T09:37:36.655Z,3.21
2019-02-16T09:38:36.684Z,3.32
2019-02-16T09:39:36.727Z,3.39
2019-02-16T09:40:36.762Z,3.45
2019-02-16T09:41:36.792Z,3.54
2019-02-16T09:42:36.827Z,3.66
2019-02-16T09:43:36.919Z,3.65
2019-02-16T09:44:36.901Z,3.79
2019-02-16T09:45:36.936Z,3.91
2019-02-16T09:46:36.971Z,4.02
2019-02-16T09:47:37.009Z,4.05
2019-02-16T09:48:37.046Z,4.14
2019-02-16T09:49:37.082Z,4.27
2019-02-16T09:50:37.118Z,4.27
2019-02-16T09:51:37.159Z,4.37
2019-02-16T09:52:37.207Z,4.44
2019-02-16T09:53:37.226Z,4.47
2019-02-16T09:54:37.264Z,4.52
2019-02-16T09:55:37.298Z,4.62
2019-02-16T09:56:37.335Z,4.80
2019-02-16T09:57:37.372Z,4.86
2019-02-16T09:58:37.409Z,5.04
2019-02-16T09:59:37.495Z,5.10
2019-02-16T10:00:37.482Z,5.17
2019-02-16T10:01:37.517Z,5.25
2019-02-16T10:02:37.554Z,5.22
2019-02-16T10:03:37.591Z,5.24
2019-02-16T10:04:37.629Z,5.21
2019-02-16T10:05:37.664Z,5.27
2019-02-16T10:06:37.702Z,5.39
2019-02-16T10:07:37.738Z,5.42
2019-02-16T10:08:37.774Z,5.39
2019-02-16T10:09:37.819Z,5.49
2019-02-16T10:10:37.853Z,5.60
2019-02-16T10:11:37.887Z,5.65
2019-02-16T10:12:37.921Z,5.78
2019-02-16T10:13:37.957Z,5.89
2019-02-16T10:14:37.995Z,5.89
2019-02-16T10:15:38.041Z,6.06
2019-02-16T10:16:38.070Z,6.06
2019-02-16T10:17:38.109Z,6.17
2019-02-16T10:18:38.143Z,6.25
2019-02-16T10:19:38.180Z,6.30
2019-02-16T10:20:38.216Z,6.40
2019-02-16T10:21:38.264Z,6.51
2019-02-16T10:22:40.061Z,6.62
2019-02-16T10:23:38.329Z,6.61
2019-02-16T10:24:38.369Z,6.77
2019-02-16T10:25:38.404Z,6.81
2019-02-16T10:26:38.441Z,6.84
2019-02-16T10:27:38.477Z,6.89
2019-02-16T10:28:38.533Z,6.91
2019-02-16T10:29:38.554Z,7.06
2019-02-16T10:30:38.590Z,7.07
2019-02-16T10:31:38.627Z,7.17
2019-02-16T10:32:38.665Z,7.17
2019-02-16T10:33:38.702Z,7.27
2019-02-16T10:34:38.739Z,7.40
2019-02-16T10:35:38.776Z,7.48
2019-02-16T10:36:38.814Z,7.49
2019-02-16T10:37:38.853Z,7.63
2019-02-16T10:38:38.889Z,7.61
2019-02-16T10:39:38.926Z,7.67
2019-02-16T10:40:39.018Z,7.64
2019-02-16T10:41:39.004Z,7.72
2019-02-16T10:42:39.041Z,7.75
2019-02-16T10:43:39.078Z,7.74
2019-02-16T10:44:39.119Z,7.86
2019-02-16T10:45:39.159Z,7.79
2019-02-16T10:46:39.190Z,7.85
2019-02-16T10:47:39.232Z,7.93
2019-02-16T10:48:39.266Z,8.05
2019-02-16T10:49:39.310Z,8.04
2019-02-16T10:50:39.345Z,8.18
2019-02-16T10:51:39.378Z,8.15
2019-02-16T10:52:39.422Z,8.23
2019-02-16T10:53:39.468Z,8.36
2019-02-16T10:54:39.509Z,8.38
2019-02-16T10:55:39.541Z,8.40
2019-02-16T10:56:39.677Z,8.45
2019-02-16T10:57:39.609Z,8.52
2019-02-16T10:58:39.649Z,8.63
2019-02-16T10:59:39.688Z,8.68
2019-02-16T11:00:39.734Z,8.66
2019-02-16T11:01:39.772Z,8.76
2019-02-16T11:02:39.807Z,8.84
2019-02-16T11:03:39.937Z,8.84
2019-02-16T11:04:39.883Z,8.84
2019-02-16T11:05:39.912Z,8.91
2019-02-16T11:06:39.951Z,8.95
2019-02-16T11:07:39.997Z,8.96
2019-02-16T11:08:40.030Z,9.13
2019-02-16T11:09:40.078Z,9.17
2019-02-16T11:10:40.110Z,9.24
2019-02-16T11:11:40.143Z,9.26
2019-02-16T11:12:40.182Z,9.35
2019-02-16T11:13:40.221Z,9.42
2019-02-16T11:14:40.261Z,9.36
2019-02-16T11:15:40.298Z,9.53
2019-02-16T11:16:40.336Z,9.57
2019-02-16T11:17:40.380Z,9.54
2019-02-16T11:18:40.412Z,9.64
2019-02-16T11:19:40.459Z,9.61
2019-02-16T11:20:40.509Z,9.69
2019-02-16T11:21:40.530Z,9.69
2019-02-16T11:22:40.574Z,9.75
2019-02-16T11:23:40.606Z,9.79
2019-02-16T11:24:40.641Z,9.91
2019-02-16T11:25:40.683Z,9.93
2019-02-16T11:26:40.723Z,9.89
2019-02-16T11:27:40.761Z,9.99
2019-02-16T11:28:40.801Z,10.07
2019-02-16T11:29:40.839Z,10.04
2019-02-16T11:30:40.896Z,10.14
2019-02-16T11:31:40.920Z,10.23
2019-02-16T11:32:40.959Z,10.20
2019-02-16T11:33:40.995Z,10.42
2019-02-16T11:34:41.133Z,10.33
2019-02-16T11:35:41.078Z,10.47
2019-02-16T11:36:41.113Z,10.44
2019-02-16T11:37:41.155Z,10.48
2019-02-16T11:38:41.189Z,10.56
2019-02-16T11:39:41.228Z,10.64
2019-02-16T11:40:41.269Z,10.70
2019-02-16T11:41:41.315Z,10.74
2019-02-16T11:42:41.354Z,10.73
2019-02-16T11:43:41.385Z,10.78
2019-02-16T11:44:41.441Z,10.76
2019-02-16T11:45:41.468Z,10.81
2019-02-16T11:46:41.513Z,10.91
2019-02-16T11:47:41.552Z,10.91
2019-02-16T11:48:41.591Z,11.00
2019-02-16T11:49:41.631Z,11.10
2019-02-16T11:50:41.668Z,11.14
2019-02-16T11:51:41.701Z,11.14
2019-02-16T11:52:41.746Z,11.10
2019-02-16T11:53:41.785Z,11.27
2019-02-16T11:54:45.627Z,11.32
2019-02-16T11:55:41.861Z,11.32
2019-02-16T11:56:41.912Z,11.37
2019-02-16T11:57:41.940Z,11.36
2019-02-16T11:58:41.976Z,11.33
2019-02-16T11:59:42.017Z,11.33
2019-02-16T12:00:42.067Z,11.33
2019-02-16T12:01:42.112Z,11.52
2019-02-16T12:02:42.140Z,11.47
2019-02-16T12:03:42.180Z,11.49
2019-02-16T12:04:42.217Z,11.52
2019-02-16T12:05:42.256Z,11.64
2019-02-16T12:06:42.302Z,11.67
2019-02-16T12:07:42.337Z,11.73
2019-02-16T12:08:42.375Z,11.73
2019-02-16T12:09:42.480Z,11.72
2019-02-16T12:10:42.465Z,11.78
2019-02-16T12:11:42.495Z,11.75
2019-02-16T12:12:42.536Z,11.82
2019-02-16T12:13:42.583Z,11.88
2019-02-16T12:14:42.617Z,11.95
2019-02-16T12:15:42.656Z,11.96
2019-02-16T12:16:42.699Z,11.98
2019-02-16T12:17:42.737Z,11.95
2019-02-16T12:18:42.799Z,11.98
2019-02-16T12:19:42.824Z,12.02
2019-02-16T12:20:42.857Z,11.99
2019-02-16T12:21:42.898Z,12.13
2019-02-16T12:22:42.936Z,12.10
2019-02-16T12:23:42.977Z,12.12
2019-02-16T12:24:43.026Z,12.13
2019-02-16T12:25:43.058Z,12.17
2019-02-16T12:26:43.099Z,12.27
2019-02-16T12:27:43.165Z,12.31
2019-02-16T12:28:43.180Z,12.29
2019-02-16T12:29:43.224Z,12.41
2019-02-16T12:30:43.266Z,12.41
2019-02-16T12:31:43.309Z,12.42
2019-02-16T12:32:43.349Z,12.52
2019-02-16T12:33:43.381Z,12.54
2019-02-16T12:34:43.422Z,12.54
2019-02-16T12:35:43.460Z,12.52
2019-02-16T12:36:43.501Z,12.59
2019-02-16T12:37:43.556Z,12.54
2019-02-16T12:38:43.593Z,12.60
2019-02-16T12:39:43.624Z,12.59
2019-02-16T12:40:43.664Z,12.62
2019-02-16T12:41:43.708Z,12.72
2019-02-16T12:42:43.746Z,12.62
2019-02-16T12:43:43.789Z,12.60
2019-02-16T12:44:43.827Z,12.57
2019-02-16T12:45:50.917Z,12.59
2019-02-16T12:46:43.916Z,12.60
2019-02-16T12:47:43.950Z,12.60
2019-02-16T12:48:44.007Z,12.60
2019-02-16T12:49:44.034Z,12.53
2019-02-16T12:50:44.073Z,12.60
2019-02-16T12:51:44.114Z,12.68
2019-02-16T12:52:44.153Z,12.71
2019-02-16T12:53:44.204Z,12.82
2019-02-16T12:54:44.238Z,12.78
2019-02-16T12:55:44.278Z,12.77
2019-02-16T12:56:44.371Z,12.74
2019-02-16T12:57:44.360Z,12.85
2019-02-16T12:58:44.409Z,12.85
2019-02-16T12:59:44.443Z,12.93